sensor_id;sensor_type;location;lat;lon;timestamp;P1;durP1;ratioP1;P2;durP2;ratioP2
40781;SDS011;26493;51.938;7.626;2022-12-18T00:00:08;56.28;;;25.15;;
40781;SDS011;26493;51.938;7.626;2022-12-18T00:02:34;54.95;;;25.90;;
40781;SDS011;26493;51.938;7.626;2022-12-18T00:05:00;55.97;;;24.10;;
40781;SDS011;26493;51.938;7.626;2022-12-18T00:07:26;54.08;;;25.20;;
40781;SDS011;26493;51.938;7.626;2022-12-18T00:09:52;48.33;;;24.65;;
40781;SDS011;26493;51.938;7.626;2022-12-18T00:12:18;67.13;;;26.60;;
40781;SDS011;26493;51.938;7.626;2022-12-18T00:14:44;51.10;;;22.58;;
40781;SDS011;26493;51.938;7.626;2022-12-18T00:17:10;48.38;;;23.27;;
40781;SDS011;26493;51.938;7.626;2022-12-18T00:19:36;54.72;;;27.25;;
40781;SDS011;26493;51.938;7.626;2022-12-18T00:22:02;56.45;;;26.60;;
40781;SDS011;26493;51.938;7.626;2022-12-18T00:24:28;44.63;;;22.05;;
40781;SDS011;26493;51.938;7.626;2022-12-18T00:26:54;55.88;;;26.17;;
40781;SDS011;26493;51.938;7.626;2022-12-18T00:29:20;59.58;;;24.67;;
40781;SDS011;26493;51.938;7.626;2022-12-18T00:31:46;52.67;;;23.30;;
40781;SDS011;26493;51.938;7.626;2022-12-18T00:34:12;58.80;;;23.88;;
40781;SDS011;26493;51.938;7.626;2022-12-18T00:36:39;52.45;;;25.52;;
40781;SDS011;26493;51.938;7.626;2022-12-18T00:39:05;64.05;;;26.05;;
40781;SDS011;26493;51.938;7.626;2022-12-18T00:41:32;54.75;;;23.17;;
40781;SDS011;26493;51.938;7.626;2022-12-18T00:44:17;52.90;;;26.65;;
40781;SDS011;26493;51.938;7.626;2022-12-18T00:46:44;52.28;;;24.98;;
40781;SDS011;26493;51.938;7.626;2022-12-18T00:49:14;51.03;;;24.05;;
40781;SDS011;26493;51.938;7.626;2022-12-18T00:51:40;49.28;;;26.42;;
40781;SDS011;26493;51.938;7.626;2022-12-18T00:54:06;63.63;;;26.23;;
40781;SDS011;26493;51.938;7.626;2022-12-18T00:56:32;58.85;;;24.80;;
40781;SDS011;26493;51.938;7.626;2022-12-18T00:58:58;48.92;;;26.15;;
40781;SDS011;26493;51.938;7.626;2022-12-18T01:01:24;55.90;;;24.27;;
40781;SDS011;26493;51.938;7.626;2022-12-18T01:03:50;57.88;;;26.13;;
40781;SDS011;26493;51.938;7.626;2022-12-18T01:06:16;53.92;;;25.50;;
40781;SDS011;26493;51.938;7.626;2022-12-18T01:08:42;52.30;;;25.75;;
40781;SDS011;26493;51.938;7.626;2022-12-18T01:11:12;59.67;;;25.42;;
40781;SDS011;26493;51.938;7.626;2022-12-18T01:13:39;51.35;;;23.50;;
40781;SDS011;26493;51.938;7.626;2022-12-18T01:16:05;52.50;;;23.77;;
40781;SDS011;26493;51.938;7.626;2022-12-18T01:18:32;50.17;;;23.08;;
40781;SDS011;26493;51.938;7.626;2022-12-18T01:20:58;53.38;;;24.85;;
40781;SDS011;26493;51.938;7.626;2022-12-18T01:23:24;56.78;;;24.13;;
40781;SDS011;26493;51.938;7.626;2022-12-18T01:25:52;51.42;;;26.55;;
40781;SDS011;26493;51.938;7.626;2022-12-18T01:28:18;49.03;;;23.00;;
40781;SDS011;26493;51.938;7.626;2022-12-18T01:30:44;44.67;;;24.38;;
40781;SDS011;26493;51.938;7.626;2022-12-18T01:33:10;50.33;;;22.42;;
40781;SDS011;26493;51.938;7.626;2022-12-18T01:35:40;43.60;;;22.35;;
40781;SDS011;26493;51.938;7.626;2022-12-18T01:38:06;64.60;;;24.25;;
40781;SDS011;26493;51.938;7.626;2022-12-18T01:40:34;57.00;;;26.05;;
40781;SDS011;26493;51.938;7.626;2022-12-18T01:43:00;49.17;;;23.20;;
40781;SDS011;26493;51.938;7.626;2022-12-18T01:45:30;45.70;;;23.40;;
40781;SDS011;26493;51.938;7.626;2022-12-18T01:48:03;46.72;;;23.13;;
40781;SDS011;26493;51.938;7.626;2022-12-18T01:55:24;52.33;;;25.13;;
40781;SDS011;26493;51.938;7.626;2022-12-18T01:57:53;51.90;;;23.50;;
40781;SDS011;26493;51.938;7.626;2022-12-18T02:00:21;50.38;;;25.10;;
40781;SDS011;26493;51.938;7.626;2022-12-18T02:02:47;49.92;;;21.15;;
40781;SDS011;26493;51.938;7.626;2022-12-18T02:05:18;48.85;;;23.52;;
40781;SDS011;26493;51.938;7.626;2022-12-18T02:10:15;54.20;;;23.48;;
40781;SDS011;26493;51.938;7.626;2022-12-18T02:15:15;50.55;;;23.33;;
40781;SDS011;26493;51.938;7.626;2022-12-18T02:17:44;45.03;;;21.58;;
40781;SDS011;26493;51.938;7.626;2022-12-18T02:28:04;49.38;;;24.17;;
40781;SDS011;26493;51.938;7.626;2022-12-18T02:32:57;42.72;;;19.73;;
40781;SDS011;26493;51.938;7.626;2022-12-18T02:35:26;50.23;;;22.20;;
40781;SDS011;26493;51.938;7.626;2022-12-18T02:40:19;46.10;;;21.80;;
40781;SDS011;26493;51.938;7.626;2022-12-18T02:45:13;77.28;;;37.50;;
40781;SDS011;26493;51.938;7.626;2022-12-18T02:47:40;47.92;;;23.63;;
40781;SDS011;26493;51.938;7.626;2022-12-18T02:50:19;53.35;;;23.65;;
40781;SDS011;26493;51.938;7.626;2022-12-18T02:55:42;46.92;;;22.70;;
40781;SDS011;26493;51.938;7.626;2022-12-18T02:58:18;47.65;;;20.90;;
40781;SDS011;26493;51.938;7.626;2022-12-18T03:00:50;50.53;;;22.67;;
40781;SDS011;26493;51.938;7.626;2022-12-18T03:03:30;50.30;;;22.60;;
40781;SDS011;26493;51.938;7.626;2022-12-18T03:06:32;44.88;;;21.10;;
40781;SDS011;26493;51.938;7.626;2022-12-18T03:08:51;42.97;;;20.00;;
40781;SDS011;26493;51.938;7.626;2022-12-18T03:11:18;42.80;;;19.00;;
40781;SDS011;26493;51.938;7.626;2022-12-18T03:14:04;46.13;;;21.17;;
40781;SDS011;26493;51.938;7.626;2022-12-18T03:18:58;48.78;;;21.65;;
40781;SDS011;26493;51.938;7.626;2022-12-18T03:23:52;42.17;;;19.17;;
40781;SDS011;26493;51.938;7.626;2022-12-18T03:26:19;41.00;;;20.08;;
40781;SDS011;26493;51.938;7.626;2022-12-18T03:31:13;49.60;;;21.05;;
40781;SDS011;26493;51.938;7.626;2022-12-18T03:33:46;44.90;;;20.45;;
40781;SDS011;26493;51.938;7.626;2022-12-18T03:36:16;45.05;;;21.00;;
40781;SDS011;26493;51.938;7.626;2022-12-18T03:38:42;42.95;;;21.10;;
40781;SDS011;26493;51.938;7.626;2022-12-18T03:48:51;46.97;;;21.33;;
40781;SDS011;26493;51.938;7.626;2022-12-18T03:51:42;41.55;;;19.52;;
40781;SDS011;26493;51.938;7.626;2022-12-18T03:54:05;44.72;;;19.77;;
40781;SDS011;26493;51.938;7.626;2022-12-18T03:56:35;46.63;;;21.05;;
40781;SDS011;26493;51.938;7.626;2022-12-18T03:59:02;41.28;;;20.88;;
40781;SDS011;26493;51.938;7.626;2022-12-18T04:01:32;40.05;;;19.75;;
40781;SDS011;26493;51.938;7.626;2022-12-18T04:04:00;44.53;;;22.52;;
40781;SDS011;26493;51.938;7.626;2022-12-18T04:06:27;43.55;;;21.35;;
40781;SDS011;26493;51.938;7.626;2022-12-18T04:08:53;42.40;;;19.85;;
40781;SDS011;26493;51.938;7.626;2022-12-18T04:11:19;42.97;;;21.63;;
40781;SDS011;26493;51.938;7.626;2022-12-18T04:13:45;43.85;;;19.25;;
40781;SDS011;26493;51.938;7.626;2022-12-18T04:16:11;45.28;;;19.23;;
40781;SDS011;26493;51.938;7.626;2022-12-18T04:18:37;42.10;;;20.20;;
40781;SDS011;26493;51.938;7.626;2022-12-18T04:21:03;41.05;;;19.65;;
40781;SDS011;26493;51.938;7.626;2022-12-18T04:23:29;37.90;;;18.60;;
40781;SDS011;26493;51.938;7.626;2022-12-18T04:25:55;38.38;;;17.02;;
40781;SDS011;26493;51.938;7.626;2022-12-18T04:28:21;44.10;;;19.90;;
40781;SDS011;26493;51.938;7.626;2022-12-18T04:30:47;43.78;;;19.85;;
40781;SDS011;26493;51.938;7.626;2022-12-18T04:33:16;39.75;;;17.38;;
40781;SDS011;26493;51.938;7.626;2022-12-18T04:35:42;42.33;;;21.33;;
40781;SDS011;26493;51.938;7.626;2022-12-18T04:38:09;42.83;;;19.17;;
40781;SDS011;26493;51.938;7.626;2022-12-18T04:40:35;49.25;;;20.25;;
40781;SDS011;26493;51.938;7.626;2022-12-18T04:43:01;37.58;;;19.17;;
40781;SDS011;26493;51.938;7.626;2022-12-18T04:45:27;43.00;;;21.30;;
40781;SDS011;26493;51.938;7.626;2022-12-18T04:47:53;42.42;;;19.67;;
40781;SDS011;26493;51.938;7.626;2022-12-18T04:50:19;40.72;;;18.83;;
40781;SDS011;26493;51.938;7.626;2022-12-18T04:52:45;43.53;;;21.08;;
40781;SDS011;26493;51.938;7.626;2022-12-18T04:55:11;41.00;;;19.95;;
40781;SDS011;26493;51.938;7.626;2022-12-18T04:57:37;37.85;;;17.63;;
40781;SDS011;26493;51.938;7.626;2022-12-18T05:00:03;40.78;;;18.40;;
40781;SDS011;26493;51.938;7.626;2022-12-18T05:02:31;38.92;;;19.25;;
40781;SDS011;26493;51.938;7.626;2022-12-18T05:04:57;37.05;;;17.55;;
40781;SDS011;26493;51.938;7.626;2022-12-18T05:07:23;43.35;;;18.35;;
40781;SDS011;26493;51.938;7.626;2022-12-18T05:09:49;37.50;;;17.90;;
40781;SDS011;26493;51.938;7.626;2022-12-18T05:12:15;36.72;;;17.13;;
40781;SDS011;26493;51.938;7.626;2022-12-18T05:14:41;39.95;;;18.73;;
40781;SDS011;26493;51.938;7.626;2022-12-18T05:17:06;40.15;;;17.77;;
40781;SDS011;26493;51.938;7.626;2022-12-18T05:19:32;34.97;;;17.65;;
40781;SDS011;26493;51.938;7.626;2022-12-18T05:21:59;41.13;;;19.58;;
40781;SDS011;26493;51.938;7.626;2022-12-18T05:24:25;42.20;;;18.15;;
40781;SDS011;26493;51.938;7.626;2022-12-18T05:26:51;36.20;;;17.92;;
40781;SDS011;26493;51.938;7.626;2022-12-18T05:29:16;36.25;;;17.58;;
40781;SDS011;26493;51.938;7.626;2022-12-18T05:31:42;32.75;;;17.00;;
40781;SDS011;26493;51.938;7.626;2022-12-18T05:34:08;37.22;;;18.23;;
40781;SDS011;26493;51.938;7.626;2022-12-18T05:36:34;38.95;;;17.65;;
40781;SDS011;26493;51.938;7.626;2022-12-18T05:39:00;34.75;;;17.80;;
40781;SDS011;26493;51.938;7.626;2022-12-18T05:41:27;37.17;;;18.27;;
40781;SDS011;26493;51.938;7.626;2022-12-18T05:43:53;44.13;;;18.48;;
40781;SDS011;26493;51.938;7.626;2022-12-18T05:46:19;35.58;;;15.80;;
40781;SDS011;26493;51.938;7.626;2022-12-18T05:48:46;35.42;;;16.58;;
40781;SDS011;26493;51.938;7.626;2022-12-18T05:51:14;36.37;;;17.83;;
40781;SDS011;26493;51.938;7.626;2022-12-18T05:53:40;34.50;;;17.10;;
40781;SDS011;26493;51.938;7.626;2022-12-18T05:56:08;36.28;;;17.65;;
40781;SDS011;26493;51.938;7.626;2022-12-18T05:58:34;36.38;;;16.50;;
40781;SDS011;26493;51.938;7.626;2022-12-18T06:01:08;32.70;;;15.90;;
40781;SDS011;26493;51.938;7.626;2022-12-18T06:03:34;32.67;;;15.50;;
40781;SDS011;26493;51.938;7.626;2022-12-18T06:06:00;32.67;;;15.77;;
40781;SDS011;26493;51.938;7.626;2022-12-18T06:08:26;35.40;;;14.43;;
40781;SDS011;26493;51.938;7.626;2022-12-18T06:10:52;30.85;;;14.55;;
40781;SDS011;26493;51.938;7.626;2022-12-18T06:13:19;31.92;;;16.33;;
40781;SDS011;26493;51.938;7.626;2022-12-18T06:15:45;29.70;;;16.35;;
40781;SDS011;26493;51.938;7.626;2022-12-18T06:18:11;35.45;;;16.20;;
40781;SDS011;26493;51.938;7.626;2022-12-18T06:20:37;33.58;;;15.25;;
40781;SDS011;26493;51.938;7.626;2022-12-18T06:23:05;34.75;;;16.48;;
40781;SDS011;26493;51.938;7.626;2022-12-18T06:25:31;32.03;;;14.30;;
40781;SDS011;26493;51.938;7.626;2022-12-18T06:27:57;29.65;;;14.73;;
40781;SDS011;26493;51.938;7.626;2022-12-18T06:30:23;32.83;;;14.77;;
40781;SDS011;26493;51.938;7.626;2022-12-18T06:32:49;32.08;;;14.48;;
40781;SDS011;26493;51.938;7.626;2022-12-18T06:35:16;29.52;;;14.02;;
40781;SDS011;26493;51.938;7.626;2022-12-18T06:37:42;31.95;;;14.45;;
40781;SDS011;26493;51.938;7.626;2022-12-18T06:40:08;34.67;;;15.55;;
40781;SDS011;26493;51.938;7.626;2022-12-18T06:42:34;33.13;;;14.30;;
40781;SDS011;26493;51.938;7.626;2022-12-18T06:45:00;28.80;;;14.43;;
40781;SDS011;26493;51.938;7.626;2022-12-18T06:47:26;34.83;;;15.75;;
40781;SDS011;26493;51.938;7.626;2022-12-18T06:49:52;31.83;;;15.73;;
40781;SDS011;26493;51.938;7.626;2022-12-18T06:52:18;33.17;;;15.32;;
40781;SDS011;26493;51.938;7.626;2022-12-18T06:54:44;31.42;;;13.77;;
40781;SDS011;26493;51.938;7.626;2022-12-18T06:57:10;33.08;;;16.42;;
40781;SDS011;26493;51.938;7.626;2022-12-18T06:59:36;30.08;;;15.18;;
40781;SDS011;26493;51.938;7.626;2022-12-18T07:02:02;32.55;;;13.98;;
40781;SDS011;26493;51.938;7.626;2022-12-18T07:04:28;30.77;;;13.73;;
40781;SDS011;26493;51.938;7.626;2022-12-18T07:06:54;29.30;;;14.98;;
40781;SDS011;26493;51.938;7.626;2022-12-18T07:09:20;29.00;;;13.02;;
40781;SDS011;26493;51.938;7.626;2022-12-18T07:11:46;28.70;;;13.70;;
40781;SDS011;26493;51.938;7.626;2022-12-18T07:14:12;25.50;;;12.90;;
40781;SDS011;26493;51.938;7.626;2022-12-18T07:16:38;31.10;;;15.43;;
40781;SDS011;26493;51.938;7.626;2022-12-18T07:19:05;27.23;;;14.60;;
40781;SDS011;26493;51.938;7.626;2022-12-18T07:21:31;29.58;;;13.30;;
40781;SDS011;26493;51.938;7.626;2022-12-18T07:23:57;30.23;;;13.90;;
40781;SDS011;26493;51.938;7.626;2022-12-18T07:26:24;28.40;;;15.20;;
40781;SDS011;26493;51.938;7.626;2022-12-18T07:28:53;29.10;;;14.73;;
40781;SDS011;26493;51.938;7.626;2022-12-18T07:31:21;30.38;;;14.18;;
40781;SDS011;26493;51.938;7.626;2022-12-18T07:33:47;26.30;;;13.75;;
40781;SDS011;26493;51.938;7.626;2022-12-18T07:36:14;32.53;;;14.57;;
40781;SDS011;26493;51.938;7.626;2022-12-18T07:38:40;29.63;;;14.23;;
40781;SDS011;26493;51.938;7.626;2022-12-18T07:41:07;32.13;;;13.68;;
40781;SDS011;26493;51.938;7.626;2022-12-18T07:43:34;31.25;;;13.95;;
40781;SDS011;26493;51.938;7.626;2022-12-18T07:46:01;26.70;;;13.50;;
40781;SDS011;26493;51.938;7.626;2022-12-18T07:48:27;27.02;;;13.40;;
40781;SDS011;26493;51.938;7.626;2022-12-18T07:50:53;31.40;;;14.63;;
40781;SDS011;26493;51.938;7.626;2022-12-18T07:53:23;26.73;;;12.80;;
40781;SDS011;26493;51.938;7.626;2022-12-18T07:55:54;27.45;;;12.45;;
40781;SDS011;26493;51.938;7.626;2022-12-18T07:58:20;30.17;;;13.35;;
40781;SDS011;26493;51.938;7.626;2022-12-18T08:00:46;26.52;;;12.93;;
40781;SDS011;26493;51.938;7.626;2022-12-18T08:03:15;26.75;;;13.43;;
40781;SDS011;26493;51.938;7.626;2022-12-18T08:05:41;26.38;;;12.48;;
40781;SDS011;26493;51.938;7.626;2022-12-18T08:08:07;26.02;;;12.10;;
40781;SDS011;26493;51.938;7.626;2022-12-18T08:10:33;28.15;;;12.60;;
40781;SDS011;26493;51.938;7.626;2022-12-18T08:12:59;26.15;;;12.38;;
40781;SDS011;26493;51.938;7.626;2022-12-18T08:15:25;25.98;;;10.88;;
40781;SDS011;26493;51.938;7.626;2022-12-18T08:17:51;27.25;;;12.55;;
40781;SDS011;26493;51.938;7.626;2022-12-18T08:20:17;26.77;;;11.90;;
40781;SDS011;26493;51.938;7.626;2022-12-18T08:22:43;26.67;;;13.10;;
40781;SDS011;26493;51.938;7.626;2022-12-18T08:25:09;30.15;;;11.68;;
40781;SDS011;26493;51.938;7.626;2022-12-18T08:27:36;26.70;;;12.10;;
40781;SDS011;26493;51.938;7.626;2022-12-18T08:30:02;26.63;;;12.57;;
40781;SDS011;26493;51.938;7.626;2022-12-18T08:32:28;25.50;;;12.50;;
40781;SDS011;26493;51.938;7.626;2022-12-18T08:34:55;25.13;;;12.10;;
40781;SDS011;26493;51.938;7.626;2022-12-18T08:37:20;26.35;;;12.43;;
40781;SDS011;26493;51.938;7.626;2022-12-18T08:39:46;25.48;;;11.95;;
40781;SDS011;26493;51.938;7.626;2022-12-18T08:42:12;24.80;;;12.15;;
40781;SDS011;26493;51.938;7.626;2022-12-18T08:44:57;24.77;;;12.07;;
40781;SDS011;26493;51.938;7.626;2022-12-18T08:47:23;28.13;;;13.15;;
40781;SDS011;26493;51.938;7.626;2022-12-18T08:49:50;26.73;;;12.83;;
40781;SDS011;26493;51.938;7.626;2022-12-18T08:52:16;25.67;;;12.65;;
40781;SDS011;26493;51.938;7.626;2022-12-18T08:54:42;24.50;;;13.50;;
40781;SDS011;26493;51.938;7.626;2022-12-18T08:57:09;24.38;;;11.85;;
40781;SDS011;26493;51.938;7.626;2022-12-18T08:59:35;23.73;;;12.60;;
40781;SDS011;26493;51.938;7.626;2022-12-18T09:02:00;24.75;;;11.65;;
40781;SDS011;26493;51.938;7.626;2022-12-18T09:04:26;24.58;;;12.05;;
40781;SDS011;26493;51.938;7.626;2022-12-18T09:06:56;24.70;;;10.68;;
40781;SDS011;26493;51.938;7.626;2022-12-18T09:09:22;25.88;;;11.48;;
40781;SDS011;26493;51.938;7.626;2022-12-18T09:11:48;23.33;;;11.05;;
40781;SDS011;26493;51.938;7.626;2022-12-18T09:14:14;23.45;;;11.63;;
40781;SDS011;26493;51.938;7.626;2022-12-18T09:16:40;23.02;;;11.23;;
40781;SDS011;26493;51.938;7.626;2022-12-18T09:19:06;24.42;;;11.82;;
40781;SDS011;26493;51.938;7.626;2022-12-18T09:21:33;24.15;;;12.70;;
40781;SDS011;26493;51.938;7.626;2022-12-18T09:23:59;22.37;;;10.90;;
40781;SDS011;26493;51.938;7.626;2022-12-18T09:26:27;25.60;;;12.00;;
40781;SDS011;26493;51.938;7.626;2022-12-18T09:28:53;23.70;;;10.77;;
40781;SDS011;26493;51.938;7.626;2022-12-18T09:31:20;22.85;;;11.20;;
40781;SDS011;26493;51.938;7.626;2022-12-18T09:33:46;26.15;;;12.73;;
40781;SDS011;26493;51.938;7.626;2022-12-18T09:36:14;23.15;;;11.15;;
40781;SDS011;26493;51.938;7.626;2022-12-18T09:38:40;26.92;;;10.45;;
40781;SDS011;26493;51.938;7.626;2022-12-18T09:43:55;21.05;;;10.45;;
40781;SDS011;26493;51.938;7.626;2022-12-18T09:46:25;22.75;;;10.73;;
40781;SDS011;26493;51.938;7.626;2022-12-18T09:48:52;26.90;;;12.43;;
40781;SDS011;26493;51.938;7.626;2022-12-18T09:53:56;23.88;;;12.10;;
40781;SDS011;26493;51.938;7.626;2022-12-18T09:56:24;25.95;;;11.57;;
40781;SDS011;26493;51.938;7.626;2022-12-18T09:58:57;22.98;;;10.98;;
40781;SDS011;26493;51.938;7.626;2022-12-18T10:01:24;22.83;;;10.82;;
40781;SDS011;26493;51.938;7.626;2022-12-18T10:03:50;24.30;;;11.30;;
40781;SDS011;26493;51.938;7.626;2022-12-18T10:08:48;23.50;;;11.85;;
40781;SDS011;26493;51.938;7.626;2022-12-18T10:13:52;20.98;;;10.43;;
40781;SDS011;26493;51.938;7.626;2022-12-18T10:19:11;24.85;;;10.57;;
40781;SDS011;26493;51.938;7.626;2022-12-18T10:21:46;22.42;;;10.07;;
40781;SDS011;26493;51.938;7.626;2022-12-18T10:26:39;21.40;;;9.73;;
40781;SDS011;26493;51.938;7.626;2022-12-18T10:29:10;26.02;;;12.88;;
40781;SDS011;26493;51.938;7.626;2022-12-18T10:31:37;20.80;;;10.70;;
40781;SDS011;26493;51.938;7.626;2022-12-18T10:34:03;22.48;;;10.00;;
40781;SDS011;26493;51.938;7.626;2022-12-18T10:36:29;22.35;;;11.10;;
40781;SDS011;26493;51.938;7.626;2022-12-18T10:39:13;22.15;;;10.25;;
40781;SDS011;26493;51.938;7.626;2022-12-18T10:41:40;23.85;;;11.25;;
40781;SDS011;26493;51.938;7.626;2022-12-18T10:44:14;23.58;;;10.93;;
40781;SDS011;26493;51.938;7.626;2022-12-18T10:46:42;22.42;;;10.70;;
40781;SDS011;26493;51.938;7.626;2022-12-18T10:49:18;20.27;;;10.05;;
40781;SDS011;26493;51.938;7.626;2022-12-18T10:51:44;21.27;;;10.35;;
40781;SDS011;26493;51.938;7.626;2022-12-18T10:54:14;22.67;;;10.93;;
40781;SDS011;26493;51.938;7.626;2022-12-18T10:56:41;22.75;;;11.18;;
40781;SDS011;26493;51.938;7.626;2022-12-18T10:59:11;20.15;;;10.10;;
40781;SDS011;26493;51.938;7.626;2022-12-18T11:01:54;19.30;;;9.32;;
40781;SDS011;26493;51.938;7.626;2022-12-18T11:04:21;20.45;;;9.57;;
40781;SDS011;26493;51.938;7.626;2022-12-18T11:06:55;23.60;;;10.18;;
40781;SDS011;26493;51.938;7.626;2022-12-18T11:09:22;22.17;;;10.38;;
40781;SDS011;26493;51.938;7.626;2022-12-18T11:11:49;21.98;;;10.07;;
40781;SDS011;26493;51.938;7.626;2022-12-18T11:16:45;21.35;;;11.25;;
40781;SDS011;26493;51.938;7.626;2022-12-18T11:19:21;21.05;;;10.82;;
40781;SDS011;26493;51.938;7.626;2022-12-18T11:21:50;20.35;;;9.45;;
40781;SDS011;26493;51.938;7.626;2022-12-18T11:24:37;23.65;;;10.15;;
40781;SDS011;26493;51.938;7.626;2022-12-18T11:27:06;21.90;;;10.52;;
40781;SDS011;26493;51.938;7.626;2022-12-18T11:29:41;20.27;;;9.82;;
40781;SDS011;26493;51.938;7.626;2022-12-18T11:35:13;21.23;;;9.50;;
40781;SDS011;26493;51.938;7.626;2022-12-18T11:37:41;22.05;;;11.55;;
40781;SDS011;26493;51.938;7.626;2022-12-18T11:40:11;20.85;;;9.88;;
40781;SDS011;26493;51.938;7.626;2022-12-18T11:42:47;23.33;;;10.52;;
40781;SDS011;26493;51.938;7.626;2022-12-18T11:47:57;22.15;;;10.65;;
40781;SDS011;26493;51.938;7.626;2022-12-18T11:53:11;24.52;;;13.02;;
40781;SDS011;26493;51.938;7.626;2022-12-18T12:09:30;21.58;;;10.27;;
40781;SDS011;26493;51.938;7.626;2022-12-18T12:19:31;21.58;;;10.85;;
40781;SDS011;26493;51.938;7.626;2022-12-18T12:37:51;24.55;;;12.15;;
40781;SDS011;26493;51.938;7.626;2022-12-18T12:40:22;25.27;;;11.77;;
40781;SDS011;26493;51.938;7.626;2022-12-18T12:42:51;22.85;;;11.32;;
40781;SDS011;26493;51.938;7.626;2022-12-18T12:45:46;23.70;;;11.32;;
40781;SDS011;26493;51.938;7.626;2022-12-18T12:48:16;22.80;;;10.60;;
40781;SDS011;26493;51.938;7.626;2022-12-18T12:50:43;22.70;;;10.80;;
40781;SDS011;26493;51.938;7.626;2022-12-18T12:53:12;22.48;;;10.05;;
40781;SDS011;26493;51.938;7.626;2022-12-18T12:55:41;21.33;;;10.35;;
40781;SDS011;26493;51.938;7.626;2022-12-18T12:58:13;22.00;;;10.52;;
40781;SDS011;26493;51.938;7.626;2022-12-18T13:00:45;22.35;;;10.57;;
40781;SDS011;26493;51.938;7.626;2022-12-18T13:03:15;20.40;;;9.63;;
40781;SDS011;26493;51.938;7.626;2022-12-18T13:05:49;21.92;;;11.27;;
40781;SDS011;26493;51.938;7.626;2022-12-18T13:08:26;20.95;;;10.40;;
40781;SDS011;26493;51.938;7.626;2022-12-18T13:10:57;21.40;;;11.05;;
40781;SDS011;26493;51.938;7.626;2022-12-18T13:13:52;20.95;;;10.60;;
40781;SDS011;26493;51.938;7.626;2022-12-18T13:16:19;22.67;;;9.82;;
40781;SDS011;26493;51.938;7.626;2022-12-18T13:18:52;22.08;;;11.05;;
40781;SDS011;26493;51.938;7.626;2022-12-18T13:21:29;25.00;;;10.32;;
40781;SDS011;26493;51.938;7.626;2022-12-18T13:23:55;23.75;;;11.20;;
40781;SDS011;26493;51.938;7.626;2022-12-18T13:34:56;22.17;;;9.95;;
40781;SDS011;26493;51.938;7.626;2022-12-18T13:36:51;22.45;;;11.23;;
40781;SDS011;26493;51.938;7.626;2022-12-18T13:41:47;19.80;;;9.95;;
40781;SDS011;26493;51.938;7.626;2022-12-18T13:44:47;24.15;;;12.75;;
40781;SDS011;26493;51.938;7.626;2022-12-18T13:49:53;24.50;;;10.82;;
40781;SDS011;26493;51.938;7.626;2022-12-18T13:52:24;22.00;;;11.40;;
40781;SDS011;26493;51.938;7.626;2022-12-18T13:54:57;22.02;;;10.75;;
40781;SDS011;26493;51.938;7.626;2022-12-18T13:57:37;21.65;;;10.65;;
40781;SDS011;26493;51.938;7.626;2022-12-18T14:02:48;27.63;;;13.52;;
40781;SDS011;26493;51.938;7.626;2022-12-18T14:05:22;23.15;;;12.38;;
40781;SDS011;26493;51.938;7.626;2022-12-18T14:07:48;22.88;;;10.95;;
40781;SDS011;26493;51.938;7.626;2022-12-18T14:10:15;21.55;;;10.27;;
40781;SDS011;26493;51.938;7.626;2022-12-18T14:12:44;23.52;;;11.65;;
40781;SDS011;26493;51.938;7.626;2022-12-18T14:20:19;24.42;;;10.32;;
40781;SDS011;26493;51.938;7.626;2022-12-18T14:22:46;24.35;;;10.70;;
40781;SDS011;26493;51.938;7.626;2022-12-18T14:27:43;21.15;;;10.63;;
40781;SDS011;26493;51.938;7.626;2022-12-18T14:32:59;21.80;;;10.52;;
40781;SDS011;26493;51.938;7.626;2022-12-18T14:35:25;24.07;;;11.67;;
40781;SDS011;26493;51.938;7.626;2022-12-18T14:37:51;21.30;;;10.82;;
40781;SDS011;26493;51.938;7.626;2022-12-18T14:40:17;25.88;;;11.13;;
40781;SDS011;26493;51.938;7.626;2022-12-18T14:42:43;23.00;;;11.02;;
40781;SDS011;26493;51.938;7.626;2022-12-18T14:47:53;25.27;;;12.13;;
40781;SDS011;26493;51.938;7.626;2022-12-18T14:50:20;21.10;;;10.40;;
40781;SDS011;26493;51.938;7.626;2022-12-18T14:52:47;23.73;;;11.93;;
40781;SDS011;26493;51.938;7.626;2022-12-18T14:55:16;21.90;;;11.02;;
40781;SDS011;26493;51.938;7.626;2022-12-18T14:57:43;22.13;;;11.70;;
40781;SDS011;26493;51.938;7.626;2022-12-18T15:00:16;22.60;;;11.50;;
40781;SDS011;26493;51.938;7.626;2022-12-18T15:02:44;21.90;;;11.40;;
40781;SDS011;26493;51.938;7.626;2022-12-18T15:05:24;19.70;;;9.93;;
40781;SDS011;26493;51.938;7.626;2022-12-18T15:07:51;24.98;;;11.57;;
40781;SDS011;26493;51.938;7.626;2022-12-18T15:10:21;23.67;;;11.60;;
40781;SDS011;26493;51.938;7.626;2022-12-18T15:20:55;21.13;;;11.05;;
40781;SDS011;26493;51.938;7.626;2022-12-18T15:23:36;20.98;;;10.52;;
40781;SDS011;26493;51.938;7.626;2022-12-18T15:26:04;22.90;;;10.77;;
40781;SDS011;26493;51.938;7.626;2022-12-18T15:31:01;22.33;;;10.00;;
40781;SDS011;26493;51.938;7.626;2022-12-18T15:33:30;22.85;;;10.80;;
40781;SDS011;26493;51.938;7.626;2022-12-18T15:36:00;20.50;;;10.85;;
40781;SDS011;26493;51.938;7.626;2022-12-18T15:38:26;21.48;;;10.98;;
40781;SDS011;26493;51.938;7.626;2022-12-18T15:40:53;24.27;;;10.63;;
40781;SDS011;26493;51.938;7.626;2022-12-18T15:43:22;21.85;;;10.30;;
40781;SDS011;26493;51.938;7.626;2022-12-18T15:48:27;21.98;;;10.07;;
40781;SDS011;26493;51.938;7.626;2022-12-18T15:50:55;21.85;;;10.05;;
40781;SDS011;26493;51.938;7.626;2022-12-18T15:53:23;22.02;;;10.25;;
40781;SDS011;26493;51.938;7.626;2022-12-18T15:55:50;22.48;;;10.48;;
40781;SDS011;26493;51.938;7.626;2022-12-18T15:58:34;21.02;;;9.77;;
40781;SDS011;26493;51.938;7.626;2022-12-18T16:01:00;19.30;;;9.32;;
40781;SDS011;26493;51.938;7.626;2022-12-18T16:03:27;20.80;;;9.93;;
40781;SDS011;26493;51.938;7.626;2022-12-18T16:05:53;20.95;;;10.23;;
40781;SDS011;26493;51.938;7.626;2022-12-18T16:08:19;18.85;;;8.57;;
40781;SDS011;26493;51.938;7.626;2022-12-18T16:10:45;20.83;;;10.18;;
40781;SDS011;26493;51.938;7.626;2022-12-18T16:13:12;21.40;;;9.30;;
40781;SDS011;26493;51.938;7.626;2022-12-18T16:15:40;19.63;;;9.80;;
40781;SDS011;26493;51.938;7.626;2022-12-18T16:18:06;21.40;;;10.40;;
40781;SDS011;26493;51.938;7.626;2022-12-18T16:20:32;19.60;;;9.88;;
40781;SDS011;26493;51.938;7.626;2022-12-18T16:22:59;20.90;;;9.48;;
40781;SDS011;26493;51.938;7.626;2022-12-18T16:25:26;21.33;;;10.40;;
40781;SDS011;26493;51.938;7.626;2022-12-18T16:27:52;24.00;;;11.07;;
40781;SDS011;26493;51.938;7.626;2022-12-18T16:30:21;28.02;;;11.15;;
40781;SDS011;26493;51.938;7.626;2022-12-18T16:32:50;21.33;;;10.98;;
40781;SDS011;26493;51.938;7.626;2022-12-18T16:35:16;21.75;;;10.52;;
40781;SDS011;26493;51.938;7.626;2022-12-18T16:37:42;22.02;;;11.50;;
40781;SDS011;26493;51.938;7.626;2022-12-18T16:40:10;22.27;;;11.43;;
40781;SDS011;26493;51.938;7.626;2022-12-18T16:42:37;26.20;;;10.93;;
40781;SDS011;26493;51.938;7.626;2022-12-18T16:45:04;22.55;;;11.98;;
40781;SDS011;26493;51.938;7.626;2022-12-18T16:47:31;26.90;;;12.48;;
40781;SDS011;26493;51.938;7.626;2022-12-18T16:49:57;23.42;;;11.95;;
40781;SDS011;26493;51.938;7.626;2022-12-18T16:52:23;23.67;;;12.10;;
40781;SDS011;26493;51.938;7.626;2022-12-18T16:54:49;25.08;;;12.45;;
40781;SDS011;26493;51.938;7.626;2022-12-18T16:57:16;24.63;;;11.85;;